• Join FlightAware (Why Join?)
  • Login
  • US Flag 
04:52PM EDT


 

Airport Tracker/Info


-or-


 

Live Flight TrackerFlight Track Log ✈ SKW6345 ✈ 24-Jun-2013 ✈ KDEN - KDFW

Flight Track Log - Related Links

Times and Time Zones

All times are in EDT time to prevent confusion due to time zone crossing. See the SKW6345 flight status page for this flight to view local times or setup timezone preferences in your user account.

Time Position Orientation Groundspeed Altitude Reporting Facility
EDT Latitude Longitude Course Direction KTS MPH feet Rate Location/Type
04:55PM 39.7667 -104.6333 166° South 225 259 7,800  Level Denver TRACON
04:56PM 39.7167 -104.6167 166° South 263 303 9,000 1,560 Climbing Denver TRACON
04:57PM 39.6542 -104.5872 160° South 276 318 10,500 1,860 Climbing Denver Center
04:58PM 39.5733 -104.5606 166° South 295 339 12,500 1,920 Climbing Denver Center
04:59PM 39.4900 -104.5397 169° South 307 353 14,500 1,680 Climbing Denver Center
05:00PM 39.3878 -104.5169 170° South 353 406 16,000 1,620 Climbing Denver Center
05:01PM 39.2875 -104.4947 170° South 364 419 17,900 1,680 Climbing Denver Center
05:02PM 39.1753 -104.4703 170° South 383 441 19,500 1,620 Climbing Denver Center
05:03PM 39.0678 -104.4417 168° South 375 432 21,300 1,500 Climbing Denver Center
05:04PM 38.9642 -104.4122 168° South 392 451 22,700 1,200 Climbing Denver Center
05:05PM 38.8217 -104.3708 167° South 409 471 24,100 1,020 Climbing Denver Center
05:06PM 38.7094 -104.3397 168° South 427 491 25,100 1,200 Climbing Denver Center
05:07PM 38.5767 -104.3019 167° South 434 499 26,600 1,200 Climbing Denver Center
05:08PM 38.4511 -104.2669 168° South 441 507 27,600 960 Climbing Denver Center
05:09PM 38.3242 -104.2236 165° South 454 522 28,600 1,020 Climbing Denver Center
05:10PM 38.2061 -104.1742 162° South 464 534 29,800 1,200 Climbing Denver Center
05:11PM 38.0942 -104.1083 155° Southeast 464 534 31,100 1,320 Climbing Denver Center
05:12PM 37.9664 -104.0264 153° Southeast 459 528 32,600 1,260 Climbing Denver Center
05:13PM 37.8614 -103.9500 150° Southeast 454 522 33,700 900 Climbing Denver Center
05:14PM 37.7411 -103.8500 147° Southeast 460 529 34,500 660 Climbing Denver Center
05:15PM 37.6378 -103.7572 145° Southeast 467 537 35,100 720 Climbing Denver Center
05:16PM 37.5353 -103.6631 144° Southeast 470 541 36,100 960 Climbing Denver Center
05:17PM 37.4358 -103.5286 133° Southeast 468 539 37,100 840 Climbing Denver Center
05:18PM 37.3508 -103.4144 133° Southeast 465 535 37,900 660 Climbing Denver Center
05:20PM 37.2531 -103.2822 133° Southeast 462 532 38,500 480 Climbing Denver Center
05:21PM 37.1694 -103.1689 133° Southeast 462 532 39,000 240 Climbing Denver Center
05:22PM 37.0997 -103.0744 133° Southeast 463 533 39,000  Level Denver Center
05:23PM 36.9700 -102.9008 133° Southeast 474 545 39,000  Level Albuquerque Center
05:24PM 36.8939 -102.7719 126° Southeast 481 554 39,000  Level Albuquerque Center
05:25PM 36.8000 -102.6250 129° Southeast 484 557 39,000  Level Albuquerque Center
05:26PM 36.7086 -102.4811 128° Southeast 484 557 39,000  Level Albuquerque Center
05:27PM 36.6250 -102.3489 128° Southeast 486 559 39,000  Level Albuquerque Center
05:28PM 36.5414 -102.2197 129° Southeast 483 556 39,000  Level Albuquerque Center
05:29PM 36.4581 -102.0892 128° Southeast 481 554 39,000  Level Albuquerque Center
05:30PM 36.3744 -101.9603 129° Southeast 480 552 39,000  Level Albuquerque Center
05:31PM 36.2908 -101.8319 129° Southeast 479 551 39,000  Level Albuquerque Center
05:32PM 36.2078 -101.7044 129° Southeast 477 549 39,000  Level Albuquerque Center
05:33PM 36.1250 -101.5758 129° Southeast 476 548 39,100  Climbing Albuquerque Center
05:34PM 36.0247 -101.4225 129° Southeast 476 548 39,000 -60 Descending Albuquerque Center
05:35PM 35.9425 -101.2958 129° Southeast 474 545 39,000  Level Albuquerque Center
05:36PM 35.8600 -101.1711 129° Southeast 469 540 39,000  Level Albuquerque Center
05:37PM 35.7775 -101.0461 129° Southeast 468 539 39,000  Level Albuquerque Center
05:38PM 35.6947 -100.9219 129° Southeast 468 539 39,000  Level Albuquerque Center
05:39PM 35.6133 -100.7972 129° Southeast 466 536 39,000  Level Albuquerque Center
05:40PM 35.5303 -100.6747 130° Southeast 466 536 39,000  Level Albuquerque Center
05:41PM 35.4372 -100.5383 130° Southeast 466 536 39,000  Level Albuquerque Center
05:42PM 35.3553 -100.4156 129° Southeast 466 536 39,000  Level Albuquerque Center
05:43PM 35.2722 -100.2942 130° Southeast 465 535 39,000  Level Albuquerque Center
05:44PM 35.1908 -100.1728 129° Southeast 464 534 39,000  Level Albuquerque Center
05:45PM 35.1089 -100.0522 130° Southeast 463 533 39,000  Level Albuquerque Center
05:46PM 35.0089 -99.9069 130° Southeast 466 536 39,000  Level Albuquerque Center
05:47PM 34.9258 -99.7853 130° Southeast 467 537 39,000  Level Albuquerque Center
05:49PM 34.8400 -99.6617 130° Southeast 474 545 39,000 -240 Level Albuquerque Center
05:50PM 34.7478 -99.5314 131° Southeast 471 542 38,500 -720 Descending Fort Worth Center
05:51PM 34.6644 -99.4131 131° Southeast 466 536 37,500 -1,020 Descending Fort Worth Center
05:52PM 34.5806 -99.2900 130° Southeast 466 536 36,500 -960 Descending Fort Worth Center
05:53PM 34.4969 -99.1647 129° Southeast 473 544 35,600 -1,140 Descending Fort Worth Center
05:54PM 34.4006 -99.0394 133° Southeast 467 537 34,300 -1,980 Descending Fort Worth Center
05:55PM 34.3186 -98.9197 130° Southeast 466 536 31,700 -2,760 Descending Fort Worth Center
05:56PM 34.2303 -98.7975 131° Southeast 466 536 28,800 -2,940 Descending Fort Worth Center
05:57PM 34.1419 -98.6708 130° Southeast 466 536 25,900 -2,460 Descending Fort Worth Center
05:58PM 34.0678 -98.5619 129° Southeast 473 544 24,000 -960 Descending Fort Worth Center
05:59PM 33.9875 -98.4481 130° Southeast 467 537 24,000  Level Fort Worth Center
06:00PM 33.9192 -98.3597 133° Southeast 454 522 24,000 -1,320 Level Fort Worth Center
06:01PM 33.8078 -98.2108 132° Southeast 454 522 21,400 -2,400 Descending Fort Worth Center
06:02PM 33.7331 -98.1103 132° Southeast 446 513 19,200 -2,100 Descending Fort Worth Center
06:03PM 33.6458 -98.0147 138° Southeast 433 498 17,200 -2,160 Descending Fort Worth Center
06:04PM 33.5461 -97.9269 144° Southeast 416 479 15,000 -2,040 Descending Fort Worth Center
06:05PM 33.4903 -97.8294 124° Southeast 390 449 13,200 -1,920 Descending Fort Worth Center
06:06PM 33.4258 -97.7194 125° Southeast 372 428 11,200 -1,440 Descending Fort Worth Center
06:07PM 33.3800 -97.6447 126° Southeast 332 382 10,400 -1,320 Descending Fort Worth Center
06:08PM 33.3333 -97.5667 126° Southeast 278 320 8,700 -1,860 Descending Dallas / Fort Worth TRACON
06:08PM 33.2833 -97.5167 140° Southeast 276 318 7,100 -1,680 Descending Dallas / Fort Worth TRACON
06:09PM 33.2333 -97.4500 132° Southeast 267 307 5,600 -1,080 Descending Dallas / Fort Worth TRACON
06:10PM 33.1833 -97.3833 132° Southeast 264 304 5,000 -300 Descending Dallas / Fort Worth TRACON
06:11PM 33.1333 -97.3167 132° Southeast 260 299 5,000  Level Dallas / Fort Worth TRACON
06:12PM 33.0833 -97.2667 140° Southeast 241 277 5,000 -540 Level Dallas / Fort Worth TRACON
06:13PM 33.0333 -97.2000 132° Southeast 232 267 4,000 -1,080 Descending Dallas / Fort Worth TRACON
06:14PM 33.0000 -97.1667 140° Southeast 212 244 3,000 -1,080 Descending Dallas / Fort Worth TRACON
06:15PM 32.9500 -97.1333 151° Southeast 144 166 2,000 -900 Descending Dallas / Fort Worth TRACON
06:16PM 32.9333 -97.1000 121° Southeast 124 143 1,300 -420 Descending Dallas / Fort Worth TRACON
06:19PM 32.8683 -97.0450 145° Southeast 137 158 700 -300 Descending Fort Worth Center